createdAt,value
2019-03-17T00:00:39.778Z,6.80
2019-03-17T00:03:06.664Z,6.80
2019-03-17T00:05:33.651Z,6.80
2019-03-17T00:08:00.503Z,6.80
2019-03-17T00:10:27.376Z,6.70
2019-03-17T00:12:54.176Z,6.70
2019-03-17T00:15:20.958Z,6.70
2019-03-17T00:17:47.840Z,6.60
2019-03-17T00:20:14.846Z,6.50
2019-03-17T00:22:41.620Z,6.50
2019-03-17T00:25:10.086Z,6.40
2019-03-17T00:27:37.392Z,6.30
2019-03-17T00:30:06.288Z,6.10
2019-03-17T00:32:36.148Z,6.10
2019-03-17T00:35:08.960Z,5.90
2019-03-17T00:37:39.775Z,5.90
2019-03-17T00:40:10.549Z,5.90
2019-03-17T00:42:37.459Z,5.80
2019-03-17T00:45:05.343Z,5.70
2019-03-17T00:47:32.305Z,5.70
2019-03-17T00:49:59.097Z,5.70
2019-03-17T00:52:25.992Z,5.70
2019-03-17T00:54:52.833Z,5.70
2019-03-17T00:57:19.709Z,5.70
2019-03-17T00:59:47.286Z,5.70
2019-03-17T01:02:14.057Z,5.60
2019-03-17T01:04:40.838Z,5.50
2019-03-17T01:07:07.728Z,5.30
2019-03-17T01:09:34.488Z,5.20
2019-03-17T01:12:01.576Z,5.10
2019-03-17T01:14:28.355Z,5.10
2019-03-17T01:16:55.140Z,5.00
2019-03-17T01:19:21.988Z,4.90
2019-03-17T01:21:48.780Z,4.80
2019-03-17T01:24:15.757Z,4.70
2019-03-17T01:26:42.546Z,4.60
2019-03-17T01:29:09.300Z,4.60
2019-03-17T01:31:36.172Z,4.50
2019-03-17T01:34:03.079Z,4.60
2019-03-17T01:36:29.882Z,4.90
2019-03-17T01:38:56.737Z,5.20
2019-03-17T01:41:23.505Z,5.70
2019-03-17T01:43:50.276Z,6.10
2019-03-17T01:46:17.062Z,6.50
2019-03-17T01:48:43.926Z,6.80
2019-03-17T01:51:10.701Z,6.90
2019-03-17T01:53:37.486Z,6.80
2019-03-17T01:56:04.249Z,6.60
2019-03-17T01:58:31.040Z,6.40
2019-03-17T02:00:57.917Z,6.20
2019-03-17T02:03:24.952Z,6.00
2019-03-17T02:05:51.756Z,6.00
2019-03-17T02:08:21.431Z,6.00
2019-03-17T02:10:48.243Z,6.00
2019-03-17T02:13:15.128Z,6.10
2019-03-17T02:15:42.033Z,6.20
2019-03-17T02:18:08.840Z,6.60
2019-03-17T02:20:35.641Z,6.60
2019-03-17T02:23:02.554Z,6.70
2019-03-17T02:25:29.441Z,6.70
2019-03-17T02:27:56.365Z,6.60
2019-03-17T02:30:23.266Z,6.50
2019-03-17T02:32:50.258Z,6.20
2019-03-17T02:35:17.258Z,6.10
2019-03-17T02:37:44.061Z,6.00
2019-03-17T02:40:11.087Z,6.00
2019-03-17T02:42:38.045Z,6.00
2019-03-17T02:45:05.825Z,5.90
2019-03-17T02:47:32.725Z,5.90
2019-03-17T02:49:59.515Z,5.90
2019-03-17T02:52:26.418Z,5.80
2019-03-17T02:54:53.505Z,5.70
2019-03-17T02:57:20.488Z,5.70
2019-03-17T02:59:47.431Z,5.60
2019-03-17T03:02:14.407Z,5.60
2019-03-17T03:04:41.297Z,5.60
2019-03-17T03:07:08.115Z,5.60
2019-03-17T03:09:35.038Z,5.60
2019-03-17T03:12:02.027Z,5.60
2019-03-17T03:14:28.941Z,5.50
2019-03-17T03:16:55.856Z,5.40
2019-03-17T03:19:22.841Z,5.30
2019-03-17T03:21:49.619Z,5.30
2019-03-17T03:24:16.430Z,5.20
2019-03-17T03:26:43.328Z,5.10
2019-03-17T03:29:10.347Z,5.10
2019-03-17T03:31:37.342Z,5.00
2019-03-17T03:34:04.526Z,4.90
2019-03-17T03:36:31.433Z,4.80
2019-03-17T03:38:58.356Z,4.70
2019-03-17T03:41:25.247Z,4.60
2019-03-17T03:43:52.250Z,4.50
2019-03-17T03:46:19.250Z,4.40
2019-03-17T03:48:46.252Z,4.30
2019-03-17T03:51:13.239Z,4.30
2019-03-17T03:53:40.217Z,4.20
2019-03-17T03:56:07.232Z,4.10
2019-03-17T03:58:34.227Z,4.10
2019-03-17T04:01:01.227Z,4.20
2019-03-17T04:03:28.314Z,4.30
2019-03-17T04:05:55.325Z,4.30
2019-03-17T04:08:22.322Z,4.40
2019-03-17T04:10:49.235Z,4.40
2019-03-17T04:13:16.127Z,4.40
2019-03-17T04:15:43.246Z,4.50
2019-03-17T04:18:10.337Z,4.70
2019-03-17T04:20:37.463Z,5.30
2019-03-17T04:23:04.458Z,6.00
2019-03-17T04:25:31.354Z,6.60
2019-03-17T04:27:58.136Z,7.20
2019-03-17T04:30:25.059Z,7.70
2019-03-17T04:32:51.851Z,8.00
2019-03-17T04:35:18.754Z,8.30
2019-03-17T04:37:45.552Z,8.70
2019-03-17T04:40:12.549Z,8.90
2019-03-17T04:42:39.354Z,9.00
2019-03-17T04:45:06.385Z,9.10
2019-03-17T04:47:33.282Z,9.20
2019-03-17T04:50:00.344Z,9.30
2019-03-17T04:52:27.301Z,9.30
2019-03-17T04:54:54.217Z,9.40
2019-03-17T04:57:21.196Z,9.30
2019-03-17T04:59:47.986Z,9.40
2019-03-17T05:02:15.144Z,9.40
2019-03-17T05:04:42.118Z,9.50
2019-03-17T05:07:09.025Z,9.60
2019-03-17T05:09:35.932Z,9.60
2019-03-17T05:12:02.814Z,9.50
2019-03-17T05:14:29.617Z,9.40
2019-03-17T05:16:56.402Z,9.30
2019-03-17T05:19:23.390Z,9.20
2019-03-17T05:21:50.289Z,9.10
2019-03-17T05:24:17.078Z,8.90
2019-03-17T05:26:43.978Z,8.80
2019-03-17T05:29:10.783Z,8.80
2019-03-17T05:31:37.557Z,8.60
2019-03-17T05:34:04.658Z,8.50
2019-03-17T05:36:31.450Z,8.50
2019-03-17T05:38:58.254Z,8.40
2019-03-17T05:41:25.151Z,8.40
2019-03-17T05:43:51.925Z,8.50
2019-03-17T05:46:18.719Z,8.50
2019-03-17T05:48:45.601Z,8.50
2019-03-17T05:51:12.520Z,8.60
2019-03-17T05:53:40.485Z,8.80
2019-03-17T05:56:07.706Z,8.90
2019-03-17T05:58:34.593Z,9.10
2019-03-17T06:01:01.378Z,9.30
2019-03-17T06:03:28.269Z,9.40
2019-03-17T06:05:55.052Z,9.60
2019-03-17T06:08:22.044Z,9.80
2019-03-17T06:10:48.932Z,10.00
2019-03-17T06:13:15.940Z,10.40
2019-03-17T06:15:42.848Z,10.50
2019-03-17T06:18:09.755Z,10.60
2019-03-17T06:20:36.737Z,10.70
2019-03-17T06:23:03.736Z,10.80
2019-03-17T06:25:30.661Z,10.90
2019-03-17T06:27:57.558Z,11.00
2019-03-17T06:30:24.442Z,11.00
2019-03-17T06:32:52.036Z,11.10
2019-03-17T06:35:18.944Z,11.20
2019-03-17T06:37:45.845Z,11.30
2019-03-17T06:40:12.847Z,11.40
2019-03-17T06:42:39.735Z,11.50
2019-03-17T06:45:07.470Z,11.50
2019-03-17T06:47:34.362Z,11.70
2019-03-17T06:50:01.355Z,12.00
2019-03-17T06:52:28.265Z,12.20
2019-03-17T06:54:55.059Z,12.40
2019-03-17T06:57:22.053Z,12.60
2019-03-17T06:59:48.865Z,12.70
2019-03-17T07:02:15.837Z,12.80
2019-03-17T07:04:42.949Z,13.00
2019-03-17T07:07:09.978Z,13.20
2019-03-17T07:09:36.880Z,13.40
2019-03-17T07:12:03.874Z,13.60
2019-03-17T07:14:30.696Z,13.70
2019-03-17T07:16:57.498Z,13.90
2019-03-17T07:19:24.504Z,14.00
2019-03-17T07:21:51.521Z,14.20
2019-03-17T07:24:18.367Z,14.50
2019-03-17T07:26:45.321Z,14.80
2019-03-17T07:29:12.105Z,15.00
2019-03-17T07:31:38.896Z,15.20
2019-03-17T07:34:05.933Z,15.30
2019-03-17T07:36:32.917Z,15.30
2019-03-17T07:39:11.238Z,15.30
2019-03-17T07:41:28.766Z,15.60
2019-03-17T07:43:55.660Z,16.00
2019-03-17T07:46:22.537Z,16.40
2019-03-17T07:48:49.485Z,16.70
2019-03-17T07:51:16.365Z,16.80
2019-03-17T07:53:43.256Z,17.00
2019-03-17T07:56:10.035Z,17.40
2019-03-17T07:58:37.044Z,17.70
2019-03-17T08:01:04.050Z,17.80
2019-03-17T08:03:32.174Z,17.90
2019-03-17T08:05:58.967Z,18.00
2019-03-17T08:08:25.908Z,17.90
2019-03-17T08:10:52.949Z,18.00
2019-03-17T08:13:19.853Z,17.90
2019-03-17T08:15:46.759Z,17.90
2019-03-17T08:18:13.667Z,18.20
2019-03-17T08:20:40.569Z,18.20
2019-03-17T08:23:07.516Z,17.90
2019-03-17T08:25:34.495Z,17.90
2019-03-17T08:28:01.378Z,18.00
2019-03-17T08:30:28.364Z,18.20
2019-03-17T08:32:55.240Z,18.50
2019-03-17T08:35:22.240Z,18.80
2019-03-17T08:37:49.144Z,18.70
2019-03-17T08:40:16.029Z,18.70
2019-03-17T08:42:42.939Z,18.40
2019-03-17T08:45:10.149Z,18.50
2019-03-17T08:47:37.061Z,18.60
2019-03-17T08:50:04.453Z,18.40
2019-03-17T08:52:34.230Z,18.70
2019-03-17T08:55:00.042Z,18.90
2019-03-17T08:57:26.915Z,19.10
2019-03-17T08:59:53.721Z,18.60
2019-03-17T09:02:20.615Z,18.50
2019-03-17T09:04:47.501Z,18.90
2019-03-17T09:07:14.373Z,19.30
2019-03-17T09:09:41.273Z,19.50
2019-03-17T09:12:08.254Z,19.60
2019-03-17T09:14:35.152Z,19.90
2019-03-17T09:17:13.712Z,19.90
2019-03-17T09:19:30.933Z,19.60
2019-03-17T09:21:57.902Z,19.50
2019-03-17T09:24:24.727Z,19.80
2019-03-17T09:26:51.508Z,19.70
2019-03-17T09:29:18.397Z,19.90
2019-03-17T09:31:45.278Z,20.50
2019-03-17T09:34:12.171Z,20.40
2019-03-17T09:36:39.141Z,20.20
2019-03-17T09:39:06.240Z,20.10
2019-03-17T09:41:33.037Z,20.20
2019-03-17T09:43:59.913Z,20.40
2019-03-17T09:46:26.885Z,20.50
2019-03-17T09:48:53.779Z,20.10
2019-03-17T09:51:20.655Z,20.50
2019-03-17T09:53:47.547Z,20.60
2019-03-17T09:56:14.440Z,20.50
2019-03-17T09:58:41.205Z,20.10
2019-03-17T10:01:08.094Z,20.30
2019-03-17T10:03:34.877Z,20.90
2019-03-17T10:06:01.637Z,21.40
2019-03-17T10:08:28.532Z,21.40
2019-03-17T10:10:55.417Z,20.80
2019-03-17T10:13:22.306Z,20.70
2019-03-17T10:15:49.077Z,20.70
2019-03-17T10:18:15.888Z,20.80
2019-03-17T10:20:42.782Z,21.10
2019-03-17T10:23:09.685Z,21.40
2019-03-17T10:25:36.673Z,20.80
2019-03-17T10:28:03.644Z,21.10
2019-03-17T10:30:30.532Z,21.40
2019-03-17T10:32:57.313Z,21.70
2019-03-17T10:35:24.307Z,22.70
2019-03-17T10:37:51.185Z,22.70
2019-03-17T10:40:18.179Z,22.80
2019-03-17T10:42:45.177Z,22.40
2019-03-17T10:45:12.489Z,22.50
2019-03-17T10:47:39.366Z,21.90
2019-03-17T10:50:08.744Z,21.90
2019-03-17T10:52:35.719Z,21.80
2019-03-17T10:55:03.219Z,22.20
2019-03-17T10:57:30.090Z,22.30
2019-03-17T10:59:56.866Z,22.50
2019-03-17T11:02:23.759Z,22.70
2019-03-17T11:04:50.679Z,22.80
2019-03-17T11:07:17.533Z,22.80
2019-03-17T11:09:44.325Z,22.50
2019-03-17T11:12:11.097Z,21.50
2019-03-17T11:14:37.974Z,21.00
2019-03-17T11:17:04.965Z,20.50
2019-03-17T11:19:31.744Z,20.40
2019-03-17T11:21:58.625Z,19.70
2019-03-17T11:24:25.409Z,19.40
2019-03-17T11:26:52.401Z,19.30
2019-03-17T11:29:19.299Z,19.90
2019-03-17T11:31:46.283Z,21.10
2019-03-17T11:34:13.069Z,21.90
2019-03-17T11:36:39.949Z,22.40
2019-03-17T11:39:07.025Z,22.00
2019-03-17T11:41:33.925Z,21.70
2019-03-17T11:44:00.797Z,21.10
2019-03-17T11:46:27.689Z,20.40
2019-03-17T11:48:54.574Z,20.20
2019-03-17T11:51:21.574Z,19.80
2019-03-17T11:53:48.554Z,18.90
2019-03-17T11:56:15.565Z,19.20
2019-03-17T11:58:42.348Z,18.80
2019-03-17T12:01:09.299Z,18.30
2019-03-17T12:03:36.245Z,17.80
2019-03-17T12:06:03.244Z,17.80
2019-03-17T12:08:30.225Z,17.50
2019-03-17T12:10:57.147Z,17.20
2019-03-17T12:13:24.152Z,17.50
2019-03-17T12:15:51.037Z,18.40
2019-03-17T12:18:18.057Z,18.00
2019-03-17T12:20:44.949Z,17.60
2019-03-17T12:23:11.945Z,17.30
2019-03-17T12:25:38.829Z,16.90
2019-03-17T12:28:05.819Z,16.70
2019-03-17T12:30:32.706Z,16.40
2019-03-17T12:32:59.607Z,16.30
2019-03-17T12:35:26.630Z,16.30
2019-03-17T12:37:53.631Z,16.30
2019-03-17T12:40:20.614Z,16.20
2019-03-17T12:42:47.605Z,16.10
2019-03-17T12:45:14.601Z,15.90
2019-03-17T12:47:41.507Z,16.00
2019-03-17T12:50:09.441Z,15.80
2019-03-17T12:52:36.480Z,15.50
2019-03-17T12:55:04.510Z,15.30
2019-03-17T12:57:31.311Z,15.20
2019-03-17T12:59:58.770Z,15.10
2019-03-17T13:02:25.653Z,15.10
2019-03-17T13:04:52.542Z,15.10
2019-03-17T13:07:19.385Z,14.90
2019-03-17T13:09:46.161Z,14.70
2019-03-17T13:12:13.075Z,14.50
2019-03-17T13:14:39.978Z,14.50
2019-03-17T13:17:06.866Z,14.30
2019-03-17T13:19:33.777Z,14.00
2019-03-17T13:22:00.669Z,13.80
2019-03-17T13:24:27.449Z,13.40
2019-03-17T13:26:54.237Z,12.80
2019-03-17T13:29:21.129Z,12.30
2019-03-17T13:31:47.922Z,11.80
2019-03-17T13:34:14.831Z,11.20
2019-03-17T13:36:41.905Z,10.50
2019-03-17T13:39:08.815Z,10.10
2019-03-17T13:41:35.834Z,9.70
2019-03-17T13:44:02.811Z,9.50
2019-03-17T13:46:29.682Z,9.20
2019-03-17T13:48:56.495Z,8.90
2019-03-17T13:51:23.386Z,8.40
2019-03-17T13:53:56.343Z,8.10
2019-03-17T13:56:22.461Z,7.90
2019-03-17T13:58:49.365Z,7.60
2019-03-17T14:01:16.355Z,7.40
2019-03-17T14:03:43.160Z,7.20
2019-03-17T14:06:10.056Z,6.90
2019-03-17T14:08:37.062Z,6.80
2019-03-17T14:11:04.068Z,6.70
2019-03-17T14:13:31.077Z,6.60
2019-03-17T14:15:57.974Z,6.50
2019-03-17T14:18:24.792Z,6.50
2019-03-17T14:20:51.618Z,6.50
2019-03-17T14:23:18.531Z,6.60
2019-03-17T14:25:45.425Z,6.60
2019-03-17T14:28:12.444Z,6.50
2019-03-17T14:30:39.264Z,6.40
2019-03-17T14:33:06.161Z,6.40
2019-03-17T14:35:33.161Z,6.40
2019-03-17T14:38:00.058Z,6.30
2019-03-17T14:40:30.406Z,6.30
2019-03-17T14:42:57.346Z,6.20
2019-03-17T14:45:24.409Z,6.20
2019-03-17T14:47:51.418Z,6.20
2019-03-17T14:50:18.718Z,6.10
2019-03-17T14:52:45.717Z,6.00
2019-03-17T14:55:13.017Z,6.00
2019-03-17T14:57:39.929Z,5.90
2019-03-17T15:00:10.174Z,5.90
2019-03-17T15:02:37.090Z,5.80
2019-03-17T15:05:04.325Z,5.80
2019-03-17T15:07:31.232Z,5.70
2019-03-17T15:09:58.030Z,5.70
2019-03-17T15:12:24.934Z,5.70
2019-03-17T15:14:51.961Z,5.70
2019-03-17T15:17:18.751Z,5.80
2019-03-17T15:19:45.649Z,5.80
2019-03-17T15:22:12.636Z,5.80
2019-03-17T15:24:39.637Z,5.90
2019-03-17T15:27:06.535Z,5.90
2019-03-17T15:29:33.364Z,5.90
2019-03-17T15:32:00.164Z,5.90
2019-03-17T15:34:26.962Z,6.00
2019-03-17T15:36:53.945Z,6.00
2019-03-17T15:39:20.762Z,6.00
2019-03-17T15:41:47.771Z,6.00
2019-03-17T15:44:14.558Z,5.90
2019-03-17T15:46:41.565Z,6.00
2019-03-17T15:49:08.365Z,6.00
2019-03-17T15:51:35.289Z,6.00
2019-03-17T15:54:02.079Z,6.00
2019-03-17T15:56:29.112Z,6.10
2019-03-17T15:58:56.024Z,6.20
2019-03-17T16:01:22.942Z,6.20
2019-03-17T16:03:49.954Z,6.30
2019-03-17T16:06:18.853Z,6.30
2019-03-17T16:08:45.595Z,6.40
2019-03-17T16:11:12.648Z,6.50
2019-03-17T16:13:39.454Z,6.40
2019-03-17T16:16:06.352Z,6.50
2019-03-17T16:18:33.241Z,6.50
2019-03-17T16:21:00.063Z,6.60
2019-03-17T16:23:26.957Z,6.50
2019-03-17T16:25:54.015Z,6.50
2019-03-17T16:28:21.046Z,6.50
2019-03-17T16:30:48.042Z,6.50
2019-03-17T16:33:15.048Z,6.40
2019-03-17T16:35:42.036Z,6.50
2019-03-17T16:38:09.038Z,6.40
2019-03-17T16:40:35.935Z,6.40
2019-03-17T16:43:03.466Z,6.30
2019-03-17T16:45:30.469Z,6.30
2019-03-17T16:47:57.484Z,6.30
2019-03-17T16:50:24.492Z,6.20
2019-03-17T16:52:51.499Z,6.20
2019-03-17T16:55:18.592Z,6.20
2019-03-17T16:57:45.585Z,6.10
2019-03-17T17:00:14.812Z,6.10
2019-03-17T17:02:41.808Z,6.00
2019-03-17T17:05:08.982Z,6.00
2019-03-17T17:07:35.984Z,6.00
2019-03-17T17:10:03.712Z,5.90
2019-03-17T17:12:30.551Z,5.90
2019-03-17T17:14:57.436Z,5.80
2019-03-17T17:17:24.325Z,5.80
2019-03-17T17:19:51.252Z,5.70
2019-03-17T17:22:18.148Z,5.60
2019-03-17T17:24:45.056Z,5.50
2019-03-17T17:27:11.980Z,5.50
2019-03-17T17:29:38.998Z,5.50
2019-03-17T17:32:06.090Z,5.40
2019-03-17T17:34:32.984Z,5.40
2019-03-17T17:37:00.135Z,5.40
2019-03-17T17:39:27.072Z,5.30
2019-03-17T17:41:53.985Z,5.30
2019-03-17T17:44:20.861Z,5.30
2019-03-17T17:46:47.678Z,5.30
2019-03-17T17:49:14.694Z,5.30
2019-03-17T17:51:41.693Z,5.20
2019-03-17T17:54:08.708Z,5.20
2019-03-17T17:56:35.482Z,5.10
2019-03-17T17:59:02.517Z,5.10
2019-03-17T18:01:29.293Z,5.00
2019-03-17T18:03:56.205Z,4.90
2019-03-17T18:06:22.981Z,4.90
2019-03-17T18:08:50.037Z,4.90
2019-03-17T18:11:16.872Z,5.00
2019-03-17T18:13:43.682Z,5.00
2019-03-17T18:16:10.561Z,5.00
2019-03-17T18:18:37.373Z,5.00
2019-03-17T18:21:04.352Z,5.00
2019-03-17T18:23:31.343Z,5.00
2019-03-17T18:25:58.154Z,5.00
2019-03-17T18:28:25.049Z,5.00
2019-03-17T18:30:51.956Z,5.10
2019-03-17T18:33:18.743Z,5.10
2019-03-17T18:35:45.648Z,5.10
2019-03-17T18:38:12.531Z,5.00
2019-03-17T18:40:42.181Z,5.00
2019-03-17T18:43:08.209Z,5.00
2019-03-17T18:45:35.124Z,5.00
2019-03-17T18:48:02.006Z,5.00
2019-03-17T18:50:28.796Z,4.90
2019-03-17T18:52:55.692Z,4.90
2019-03-17T18:55:22.698Z,4.90
2019-03-17T18:57:49.689Z,5.00
2019-03-17T19:00:16.696Z,4.90
2019-03-17T19:02:43.616Z,5.00
2019-03-17T19:05:10.897Z,4.90
2019-03-17T19:07:37.701Z,4.90
2019-03-17T19:10:04.876Z,5.00
2019-03-17T19:12:31.691Z,4.90
2019-03-17T19:14:58.588Z,4.90
2019-03-17T19:17:25.514Z,4.90
2019-03-17T19:19:52.414Z,4.90
2019-03-17T19:22:19.185Z,4.90
2019-03-17T19:24:46.081Z,4.90
2019-03-17T19:27:13.072Z,4.90
2019-03-17T19:29:40.150Z,4.90
2019-03-17T19:32:07.036Z,4.80
2019-03-17T19:34:34.080Z,4.80
2019-03-17T19:37:01.123Z,4.80
2019-03-17T19:39:28.103Z,4.80
2019-03-17T19:41:54.977Z,4.80
2019-03-17T19:44:21.823Z,4.80
2019-03-17T19:46:48.608Z,4.80
2019-03-17T19:49:15.497Z,4.70
2019-03-17T19:51:42.389Z,4.70
2019-03-17T19:54:09.387Z,4.70
2019-03-17T19:56:36.197Z,4.70
2019-03-17T19:59:03.234Z,4.60
2019-03-17T20:01:30.039Z,4.70
2019-03-17T20:03:56.825Z,4.60
2019-03-17T20:06:23.645Z,4.60
2019-03-17T20:08:50.443Z,4.70
2019-03-17T20:11:17.269Z,4.70
2019-03-17T20:13:44.068Z,4.60
2019-03-17T20:16:10.890Z,4.60
2019-03-17T20:18:37.682Z,4.60
2019-03-17T20:21:04.580Z,4.60
2019-03-17T20:23:31.370Z,4.60
2019-03-17T20:25:58.286Z,4.60
2019-03-17T20:28:25.196Z,4.50
2019-03-17T20:30:52.025Z,4.50
2019-03-17T20:33:19.039Z,4.50
2019-03-17T20:35:46.037Z,4.40
2019-03-17T20:38:13.055Z,4.40
2019-03-17T20:40:39.854Z,4.50
2019-03-17T20:43:18.681Z,4.50
2019-03-17T20:45:35.501Z,4.50
2019-03-17T20:48:02.565Z,4.40
2019-03-17T20:50:29.504Z,4.40
2019-03-17T20:52:56.312Z,4.40
2019-03-17T20:55:23.232Z,4.40
2019-03-17T20:57:50.276Z,4.40
2019-03-17T21:00:17.168Z,4.40
2019-03-17T21:02:44.465Z,4.40
2019-03-17T21:05:11.901Z,4.40
2019-03-17T21:07:39.000Z,4.40
2019-03-17T21:10:07.725Z,4.30
2019-03-17T21:12:34.629Z,4.30
2019-03-17T21:15:01.636Z,4.10
2019-03-17T21:17:28.417Z,4.10
2019-03-17T21:19:55.217Z,4.10
2019-03-17T21:22:22.135Z,4.00
2019-03-17T21:24:49.032Z,4.00
2019-03-17T21:27:16.028Z,3.90
2019-03-17T21:29:42.844Z,3.90
2019-03-17T21:32:09.767Z,3.80
2019-03-17T21:34:36.553Z,3.80
2019-03-17T21:37:03.554Z,3.70
2019-03-17T21:39:30.348Z,3.70
2019-03-17T21:41:57.262Z,3.60
2019-03-17T21:44:24.071Z,3.60
2019-03-17T21:46:51.078Z,3.60
2019-03-17T21:49:17.974Z,3.60
2019-03-17T21:51:44.965Z,3.60
2019-03-17T21:54:11.784Z,3.50
2019-03-17T21:56:38.696Z,3.50
2019-03-17T21:59:05.593Z,3.50
2019-03-17T22:01:32.417Z,3.60
2019-03-17T22:03:59.504Z,3.60
2019-03-17T22:06:26.676Z,3.50
2019-03-17T22:08:53.769Z,3.50
2019-03-17T22:11:20.888Z,3.50
2019-03-17T22:13:47.665Z,3.50
2019-03-17T22:16:14.750Z,3.50
2019-03-17T22:18:41.798Z,3.40
2019-03-17T22:21:08.854Z,3.50
2019-03-17T22:23:35.912Z,3.40
2019-03-17T22:26:03.864Z,3.40
2019-03-17T22:28:30.737Z,3.40
2019-03-17T22:30:57.588Z,3.30
2019-03-17T22:33:24.535Z,3.30
2019-03-17T22:35:51.350Z,3.20
2019-03-17T22:38:18.397Z,3.20
2019-03-17T22:40:45.587Z,3.20
2019-03-17T22:43:12.789Z,3.20
2019-03-17T22:45:39.871Z,3.30
2019-03-17T22:48:06.849Z,3.20
2019-03-17T22:50:33.655Z,3.20
2019-03-17T22:53:00.449Z,3.20
2019-03-17T22:55:27.274Z,3.20
2019-03-17T22:57:54.069Z,3.10
2019-03-17T23:00:30.433Z,3.00
2019-03-17T23:02:57.314Z,3.00
2019-03-17T23:05:24.607Z,3.00
2019-03-17T23:07:51.492Z,3.00
2019-03-17T23:10:18.393Z,2.90
2019-03-17T23:12:45.183Z,2.90
2019-03-17T23:15:12.405Z,3.00
2019-03-17T23:17:39.405Z,3.00
2019-03-17T23:20:07.522Z,3.00
2019-03-17T23:22:34.406Z,2.90
2019-03-17T23:25:01.405Z,2.90
2019-03-17T23:27:28.293Z,2.80
2019-03-17T23:29:55.295Z,2.80
2019-03-17T23:32:22.183Z,2.80
2019-03-17T23:34:48.987Z,2.80
2019-03-17T23:37:15.870Z,2.80
2019-03-17T23:39:42.678Z,2.70
2019-03-17T23:42:09.561Z,2.60
2019-03-17T23:44:48.260Z,2.40
2019-03-17T23:47:05.093Z,2.30
2019-03-17T23:49:31.990Z,2.10
2019-03-17T23:51:58.876Z,1.90
2019-03-17T23:54:26.610Z,1.80
2019-03-17T23:56:53.534Z,1.70
2019-03-17T23:59:20.535Z,1.70
